createdAt,value
2023-04-28T00:01:24.331Z,96913.94
2023-04-28T00:05:25.522Z,96978.72
2023-04-28T00:09:26.147Z,96953.81
2023-04-28T00:13:26.810Z,96972.00
2023-04-28T00:17:29.816Z,96966.69
2023-04-28T00:21:30.184Z,96964.06
2023-04-28T00:25:30.400Z,96955.56
2023-04-28T00:29:33.154Z,96960.97
2023-04-28T00:33:35.993Z,96958.41
2023-04-28T00:37:39.811Z,96950.94
2023-04-28T00:41:40.073Z,96949.81
2023-04-28T00:45:40.284Z,96931.00
2023-04-28T00:49:43.763Z,96940.66
2023-04-28T00:53:44.450Z,96939.84
2023-04-28T00:57:45.536Z,96932.31
2023-04-28T01:01:47.760Z,96929.38
2023-04-28T01:05:51.263Z,96935.25
2023-04-28T01:09:51.860Z,96887.91
2023-04-28T01:13:57.599Z,96918.59
2023-04-28T01:17:59.150Z,96920.69
2023-04-28T01:22:01.954Z,96925.16
2023-04-28T01:26:04.779Z,96888.50
2023-04-28T01:30:04.993Z,96917.00
2023-04-28T01:34:05.217Z,96917.00
2023-04-28T01:38:05.514Z,96920.19
2023-04-28T01:42:08.932Z,96908.66
2023-04-28T01:46:09.075Z,96909.25
2023-04-28T01:50:10.821Z,96902.00
2023-04-28T01:54:10.981Z,96896.63
2023-04-28T01:58:13.796Z,96871.63
2023-04-28T02:02:14.221Z,96886.69
2023-04-28T02:06:14.488Z,96889.16
2023-04-28T02:10:14.650Z,96881.97
2023-04-28T02:14:17.965Z,96911.94
2023-04-28T02:18:19.270Z,96906.72
2023-04-28T02:22:19.520Z,96885.47
2023-04-28T02:26:19.652Z,96865.69
2023-04-28T02:30:22.800Z,96876.88
2023-04-28T02:34:23.573Z,96869.56
2023-04-28T02:38:23.811Z,96889.25
2023-04-28T02:42:24.093Z,96874.06
2023-04-28T02:46:27.204Z,96870.44
2023-04-28T02:50:27.430Z,96888.22
2023-04-28T02:54:30.342Z,96867.97
2023-04-28T02:58:31.243Z,96872.25
2023-04-28T03:02:34.134Z,96786.59
2023-04-28T03:06:34.588Z,96857.59
2023-04-28T03:10:34.863Z,96849.66
2023-04-28T03:14:36.614Z,96868.22
2023-04-28T03:18:39.407Z,96864.03
2023-04-28T03:22:39.856Z,96836.84
2023-04-28T03:26:40.122Z,96850.38
2023-04-28T03:30:40.305Z,96858.88
2023-04-28T03:34:43.157Z,96849.72
2023-04-28T03:38:43.411Z,96804.81
2023-04-28T03:42:43.575Z,96772.28
2023-04-28T03:46:47.009Z,96787.41
2023-04-28T03:50:49.870Z,96817.41
2023-04-28T03:54:50.485Z,96812.97
2023-04-28T03:58:53.817Z,96810.25
2023-04-28T04:02:54.154Z,96802.63
2023-04-28T04:06:57.230Z,96791.25
2023-04-28T04:10:57.552Z,96826.91
2023-04-28T04:14:57.905Z,96810.75
2023-04-28T04:18:58.291Z,96824.19
2023-04-28T04:23:08.864Z,96801.66
2023-04-28T04:27:09.154Z,96801.06
2023-04-28T04:31:15.480Z,96807.31
2023-04-28T04:35:17.030Z,96797.50
2023-04-28T04:39:19.857Z,96805.56
2023-04-28T04:43:21.576Z,96803.56
2023-04-28T04:47:24.254Z,96815.44
2023-04-28T04:51:24.575Z,96801.22
2023-04-28T04:55:28.198Z,96792.69
2023-04-28T04:59:28.868Z,96743.44
2023-04-28T05:03:35.502Z,96803.00
2023-04-28T05:07:36.028Z,96770.91
2023-04-28T05:11:38.995Z,96773.56
2023-04-28T05:15:39.748Z,96763.41
2023-04-28T05:20:12.841Z,96783.53
2023-04-28T05:24:13.461Z,96720.44
2023-04-28T05:28:17.076Z,96791.28
2023-04-28T05:32:18.539Z,96798.81
2023-04-28T05:36:19.142Z,96793.41
2023-04-28T05:40:20.203Z,96792.97
2023-04-28T05:44:23.246Z,96798.31
2023-04-28T05:48:24.115Z,96786.56
2023-04-28T05:52:24.333Z,96797.69
2023-04-28T05:56:24.566Z,96790.31
2023-04-28T06:00:27.789Z,96795.66
2023-04-28T06:04:32.322Z,96780.44
2023-04-28T06:08:33.658Z,96795.97
2023-04-28T06:12:33.792Z,96791.41
2023-04-28T06:16:37.195Z,96790.59
2023-04-28T06:20:37.363Z,96781.25
2023-04-28T06:24:37.654Z,96777.25
2023-04-28T06:28:41.297Z,96749.72
2023-04-28T06:32:46.926Z,96775.91
2023-04-28T06:36:47.225Z,96754.47
2023-04-28T06:40:48.135Z,96760.03
2023-04-28T06:44:49.020Z,96772.06
2023-04-28T06:48:51.883Z,96770.69
2023-04-28T06:52:52.101Z,96773.56
2023-04-28T06:56:52.214Z,96770.81
2023-04-28T07:00:52.512Z,96784.38
2023-04-28T07:04:55.733Z,96764.97
2023-04-28T07:08:56.015Z,96763.31
2023-04-28T07:12:56.261Z,96763.94
2023-04-28T07:16:56.748Z,96763.75
2023-04-28T07:20:59.695Z,96753.06
2023-04-28T07:24:59.872Z,96762.91
2023-04-28T07:29:00.124Z,96754.00
2023-04-28T07:33:00.625Z,96748.75
2023-04-28T07:37:03.910Z,96747.16
2023-04-28T07:41:05.744Z,96735.28
2023-04-28T07:45:09.803Z,96733.50
2023-04-28T07:49:10.067Z,96740.44
2023-04-28T07:53:13.043Z,96747.75
2023-04-28T07:57:13.331Z,96746.00
2023-04-28T08:01:13.531Z,96736.81
2023-04-28T08:05:14.643Z,96735.63
2023-04-28T08:09:17.664Z,96740.53
2023-04-28T08:13:18.439Z,96725.22
2023-04-28T08:17:18.644Z,96757.56
2023-04-28T08:21:18.889Z,96748.19
2023-04-28T08:25:21.719Z,96745.31
2023-04-28T08:29:23.173Z,96767.75
2023-04-28T08:33:24.382Z,96773.59
2023-04-28T08:37:25.037Z,96777.59
2023-04-28T08:41:30.169Z,96772.06
2023-04-28T08:45:33.341Z,96785.50
2023-04-28T08:49:39.527Z,96768.84
2023-04-28T08:54:08.768Z,96756.50
2023-04-28T08:58:07.831Z,96756.94
2023-04-28T09:02:08.588Z,96758.75
2023-04-28T09:06:09.003Z,96737.88
2023-04-28T09:10:27.325Z,96721.09
2023-04-28T09:14:31.538Z,96716.28
2023-04-28T09:18:33.168Z,96695.38
2023-04-28T09:22:35.650Z,96709.91
2023-04-28T09:26:55.337Z,96716.44
2023-04-28T09:30:58.913Z,96718.59
2023-04-28T09:34:59.881Z,96733.66
2023-04-28T09:39:02.198Z,96719.78
2023-04-28T09:43:15.105Z,96706.28
2023-04-28T09:47:26.093Z,96652.25
2023-04-28T09:51:26.946Z,96693.06
2023-04-28T09:55:29.366Z,96693.50
2023-04-28T09:59:32.359Z,96690.59
2023-04-28T10:03:35.567Z,96697.31
2023-04-28T10:07:38.087Z,96696.81
2023-04-28T10:12:15.890Z,96697.03
2023-04-28T10:16:18.188Z,96694.41
2023-04-28T10:20:23.679Z,96699.78
2023-04-28T10:24:33.809Z,96691.84
2023-04-28T10:28:35.131Z,96675.31
2023-04-28T10:32:35.709Z,96674.16
2023-04-28T10:36:57.767Z,96676.88
2023-04-28T10:41:05.485Z,96675.81
2023-04-28T10:45:05.951Z,96670.38
2023-04-28T10:49:06.457Z,96668.28
2023-04-28T10:53:12.232Z,96652.16
2023-04-28T10:57:24.935Z,96646.66
2023-04-28T11:01:35.351Z,96625.56
2023-04-28T11:05:38.319Z,96605.28
2023-04-28T11:09:59.114Z,96620.38
2023-04-28T11:14:37.847Z,96591.47
2023-04-28T11:19:07.665Z,96641.63
2023-04-28T11:23:13.753Z,96634.84
2023-04-28T11:27:31.291Z,96626.91
2023-04-28T11:31:37.087Z,96656.19
2023-04-28T11:35:46.499Z,96629.69
2023-04-28T11:39:52.305Z,96658.47
2023-04-28T11:43:57.058Z,96659.38
2023-04-28T11:48:01.449Z,96659.00
2023-04-28T11:52:10.788Z,96652.13
2023-04-28T11:56:14.095Z,96655.50
2023-04-28T12:00:23.485Z,96662.38
2023-04-28T12:04:38.729Z,96660.78
2023-04-28T12:08:43.742Z,96656.69
2023-04-28T12:16:50.929Z,96656.41
2023-04-28T12:20:51.845Z,96664.91
2023-04-28T12:25:08.357Z,96663.72
2023-04-28T12:29:10.341Z,96660.41
2023-04-28T12:33:27.184Z,96645.31
2023-04-28T12:37:27.347Z,96638.78
2023-04-28T12:41:27.472Z,96631.91
2023-04-28T12:45:27.904Z,96634.22
2023-04-28T12:49:31.761Z,96640.22
2023-04-28T12:53:31.921Z,96630.59
2023-04-28T12:57:32.961Z,96620.69
2023-04-28T13:01:34.071Z,96625.88
2023-04-28T13:05:37.667Z,96631.34
2023-04-28T13:09:38.579Z,96629.59
2023-04-28T13:13:39.047Z,96635.50
2023-04-28T13:17:39.942Z,96609.69
2023-04-28T13:21:43.347Z,96610.75
2023-04-28T13:25:44.744Z,96606.56
2023-04-28T13:29:44.844Z,96606.09
2023-04-28T13:33:45.440Z,96596.97
2023-04-28T13:37:48.608Z,96573.00
2023-04-28T13:41:49.190Z,96601.22
2023-04-28T13:45:50.418Z,96609.00
2023-04-28T13:49:50.936Z,96596.13
2023-04-28T13:53:53.932Z,96590.66
2023-04-28T14:03:05.989Z,96588.31
2023-04-28T14:07:06.392Z,96577.19
2023-04-28T14:11:09.629Z,96599.44
2023-04-28T14:15:13.754Z,96579.66
2023-04-28T14:19:17.542Z,96584.78
2023-04-28T14:23:17.785Z,96567.00
2023-04-28T14:27:20.618Z,96560.84
2023-04-28T14:31:20.871Z,96551.53
2023-04-28T14:35:22.142Z,96508.28
2023-04-28T14:39:22.421Z,96551.06
2023-04-28T14:43:26.184Z,96543.72
2023-04-28T14:47:26.991Z,96556.91
2023-04-28T14:51:27.905Z,96541.72
2023-04-28T14:55:28.347Z,96547.28
2023-04-28T14:59:31.261Z,96546.28
2023-04-28T15:03:31.473Z,96556.47
2023-04-28T15:07:32.779Z,96550.59
2023-04-28T15:11:32.939Z,96536.34
2023-04-28T15:15:35.815Z,96512.47
2023-04-28T15:19:36.005Z,96527.63
2023-04-28T15:23:36.178Z,96526.50
2023-04-28T15:27:36.695Z,96513.25
2023-04-28T15:31:41.280Z,96532.00
2023-04-28T15:35:41.473Z,96518.03
2023-04-28T15:39:41.603Z,96521.59
2023-04-28T15:43:41.779Z,96512.81
2023-04-28T15:47:46.932Z,96527.19
2023-04-28T15:51:47.117Z,96529.88
2023-04-28T15:55:47.370Z,96539.78
2023-04-28T15:59:47.815Z,96534.09
2023-04-28T16:03:50.916Z,96546.78
2023-04-28T16:07:53.022Z,96544.13
2023-04-28T16:11:53.331Z,96553.16
2023-04-28T16:15:55.165Z,96538.91
2023-04-28T16:19:58.086Z,96521.84
2023-04-28T16:24:01.325Z,96526.94
2023-04-28T16:28:02.464Z,96524.56
2023-04-28T16:32:03.013Z,96526.72
2023-04-28T16:36:06.839Z,96533.97
2023-04-28T16:40:12.250Z,96504.34
2023-04-28T16:44:12.862Z,96520.00
2023-04-28T16:48:13.109Z,96517.38
2023-04-28T16:52:16.871Z,96520.81
2023-04-28T16:56:17.258Z,96503.28
2023-04-28T17:00:19.343Z,96506.69
2023-04-28T17:04:19.797Z,96498.94
2023-04-28T17:08:23.018Z,96481.69
2023-04-28T17:12:23.732Z,96473.34
2023-04-28T17:16:24.081Z,96496.31
2023-04-28T17:20:25.042Z,96492.53
2023-04-28T17:24:28.400Z,96484.31
2023-04-28T17:28:29.336Z,96486.53
2023-04-28T17:32:31.230Z,96450.09
2023-04-28T17:36:33.546Z,96370.56
2023-04-28T17:40:45.032Z,96370.38
2023-04-28T17:44:45.802Z,96486.53
2023-04-28T17:48:49.198Z,96481.50
2023-04-28T17:52:50.226Z,96505.28
2023-04-28T17:56:55.013Z,96357.91
2023-04-28T18:01:04.156Z,96512.84
2023-04-28T18:05:08.265Z,96501.06
2023-04-28T18:09:11.006Z,96438.84
2023-04-28T18:13:14.442Z,96508.53
2023-04-28T18:17:15.549Z,96422.91
2023-04-28T18:21:16.747Z,96479.91
2023-04-28T18:25:19.587Z,96441.84
2023-04-28T18:29:23.080Z,96477.81
2023-04-28T18:33:28.813Z,96431.03
2023-04-28T18:37:37.301Z,96479.00
2023-04-28T18:41:38.308Z,96518.41
2023-04-28T18:45:44.305Z,96506.09
2023-04-28T18:49:49.081Z,96530.66
2023-04-28T18:53:50.674Z,96505.38
2023-04-28T18:57:51.157Z,96547.63
2023-04-28T19:01:53.960Z,96553.06
2023-04-28T19:05:57.355Z,96532.47
2023-04-28T19:10:00.394Z,96543.69
2023-04-28T19:14:01.652Z,96514.25
2023-04-28T19:18:06.882Z,96540.19
2023-04-28T19:22:07.777Z,96553.09
2023-04-28T19:26:08.162Z,96540.34
2023-04-28T19:30:13.058Z,96557.31
2023-04-28T19:34:16.617Z,96568.06
2023-04-28T19:38:23.457Z,96575.53
2023-04-28T19:42:24.965Z,96507.00
2023-04-28T19:46:32.536Z,96504.25
2023-04-28T19:50:38.165Z,96450.47
2023-04-28T19:54:40.234Z,96533.41
2023-04-28T19:58:41.302Z,96548.22
2023-04-28T20:02:43.009Z,96567.59
2023-04-28T20:06:46.609Z,96543.00
2023-04-28T20:10:53.616Z,96538.94
2023-04-28T20:14:54.923Z,96535.97
2023-04-28T20:18:58.071Z,96505.56
2023-04-28T20:23:01.658Z,96593.22
2023-04-28T20:27:02.754Z,96528.75
2023-04-28T20:31:07.866Z,96583.63
2023-04-28T20:35:09.688Z,96528.22
2023-04-28T20:39:18.590Z,96532.00
2023-04-28T20:43:24.637Z,96454.50
2023-04-28T20:47:25.094Z,96441.75
2023-04-28T20:51:25.609Z,96561.50
2023-04-28T20:55:29.033Z,96597.69
2023-04-28T20:59:32.267Z,96586.97
2023-04-28T21:03:33.665Z,96586.09
2023-04-28T21:07:34.144Z,96586.09
2023-04-28T21:11:37.603Z,96588.13
2023-04-28T21:15:40.544Z,96580.44
2023-04-28T21:19:40.762Z,96586.31
2023-04-28T21:23:42.993Z,96581.69
2023-04-28T21:27:55.617Z,96599.16
2023-04-28T21:31:55.958Z,96603.72
2023-04-28T21:35:56.287Z,96558.03
2023-04-28T21:39:59.087Z,96581.91
2023-04-28T21:44:02.650Z,96571.63
2023-04-28T21:48:03.016Z,96573.19
2023-04-28T21:52:03.480Z,96573.50
2023-04-28T21:56:04.418Z,96562.50
2023-04-28T22:00:13.129Z,96594.66
2023-04-28T22:04:16.945Z,96577.69
2023-04-28T22:08:17.816Z,96580.28
2023-04-28T22:12:19.015Z,96607.69
2023-04-28T22:16:21.873Z,96603.53
2023-04-28T22:20:22.481Z,96579.03
2023-04-28T22:24:23.279Z,96589.06
2023-04-28T22:28:24.199Z,96587.50
2023-04-28T22:32:27.763Z,96577.81
2023-04-28T22:36:27.948Z,96593.59
2023-04-28T22:40:28.113Z,96570.88
2023-04-28T22:44:28.675Z,96582.22
2023-04-28T22:48:31.536Z,96594.78
2023-04-28T22:52:32.129Z,96569.53
2023-04-28T22:56:32.352Z,96605.44
2023-04-28T23:00:33.968Z,96587.16
2023-04-28T23:04:40.223Z,96574.06
2023-04-28T23:08:44.564Z,96583.34
2023-04-28T23:12:45.142Z,96564.16
2023-04-28T23:16:45.693Z,96566.34
2023-04-28T23:20:50.808Z,96573.84
2023-04-28T23:24:51.821Z,96566.25
2023-04-28T23:28:52.075Z,96569.53
2023-04-28T23:32:52.691Z,96570.72
2023-04-28T23:36:55.498Z,96560.09
2023-04-28T23:40:55.585Z,96568.53
2023-04-28T23:44:56.084Z,96567.69
2023-04-28T23:48:56.486Z,96572.00
2023-04-28T23:52:59.189Z,96556.41
2023-04-28T23:56:59.311Z,96531.94
